Terminal Aerodrome Forecast
Issued by NWS

Home | Current Version | Previous Version | Text Only | Print | Product List | Glossary On
Versions: 1 2 3 4 5 6 7 8 9 10 11 12 13 14 15 16 17 18 19 20 21 22 23 24 25 26 27 28 29 30 31
000
FTUS41 KBOX 301739
TAFBAF
TAF
KBAF 301739Z 3018/0118 04004KT P6SM OVC015
     FM010200 03004KT P6SM OVC010
     FM010400 VRB03KT P6SM OVC008
     FM010600 02006KT 3SM BR OVC008
     FM011300 02007KT 3SM BR OVC010
     FM011600 02008KT 6SM BR OVC015=

USA.gov is the U.S. government's official web portal to all federal, state and local government web resources and services.